sensor_id;sensor_type;location;lat;lon;timestamp;P1;durP1;ratioP1;P2;durP2;ratioP2
21497;SDS011;10910;50.932;0.246;2022-07-05T00:01:48;0.50;;;0.50;;
21497;SDS011;10910;50.932;0.246;2022-07-05T00:04:14;0.60;;;0.60;;
21497;SDS011;10910;50.932;0.246;2022-07-05T00:06:40;0.50;;;0.50;;
21497;SDS011;10910;50.932;0.246;2022-07-05T00:09:27;0.70;;;0.70;;
21497;SDS011;10910;50.932;0.246;2022-07-05T00:11:53;0.70;;;0.70;;
21497;SDS011;10910;50.932;0.246;2022-07-05T00:14:19;0.60;;;0.60;;
21497;SDS011;10910;50.932;0.246;2022-07-05T00:16:45;0.60;;;0.60;;
21497;SDS011;10910;50.932;0.246;2022-07-05T00:19:11;0.60;;;0.60;;
21497;SDS011;10910;50.932;0.246;2022-07-05T00:21:37;0.50;;;0.50;;
21497;SDS011;10910;50.932;0.246;2022-07-05T00:24:03;0.60;;;0.60;;
21497;SDS011;10910;50.932;0.246;2022-07-05T00:26:29;0.60;;;0.60;;
21497;SDS011;10910;50.932;0.246;2022-07-05T00:28:55;0.60;;;0.60;;
21497;SDS011;10910;50.932;0.246;2022-07-05T00:31:21;0.60;;;0.60;;
21497;SDS011;10910;50.932;0.246;2022-07-05T00:33:47;0.68;;;0.68;;
21497;SDS011;10910;50.932;0.246;2022-07-05T00:36:13;0.60;;;0.60;;
21497;SDS011;10910;50.932;0.246;2022-07-05T00:38:39;0.60;;;0.60;;
21497;SDS011;10910;50.932;0.246;2022-07-05T00:41:06;0.60;;;0.60;;
21497;SDS011;10910;50.932;0.246;2022-07-05T00:43:32;0.60;;;0.60;;
21497;SDS011;10910;50.932;0.246;2022-07-05T00:45:58;0.60;;;0.60;;
21497;SDS011;10910;50.932;0.246;2022-07-05T00:48:24;0.50;;;0.50;;
21497;SDS011;10910;50.932;0.246;2022-07-05T00:50:50;0.70;;;0.70;;
21497;SDS011;10910;50.932;0.246;2022-07-05T00:53:17;0.70;;;0.70;;
21497;SDS011;10910;50.932;0.246;2022-07-05T00:55:43;0.70;;;0.70;;
21497;SDS011;10910;50.932;0.246;2022-07-05T00:58:10;0.60;;;0.60;;
21497;SDS011;10910;50.932;0.246;2022-07-05T01:00:36;0.60;;;0.60;;
21497;SDS011;10910;50.932;0.246;2022-07-05T01:03:03;0.70;;;0.70;;
21497;SDS011;10910;50.932;0.246;2022-07-05T01:05:29;0.70;;;0.70;;
21497;SDS011;10910;50.932;0.246;2022-07-05T01:07:57;0.60;;;0.60;;
21497;SDS011;10910;50.932;0.246;2022-07-05T01:10:25;0.50;;;0.50;;
21497;SDS011;10910;50.932;0.246;2022-07-05T01:12:53;0.60;;;0.60;;
21497;SDS011;10910;50.932;0.246;2022-07-05T01:15:20;0.60;;;0.60;;
21497;SDS011;10910;50.932;0.246;2022-07-05T01:17:47;0.60;;;0.60;;
21497;SDS011;10910;50.932;0.246;2022-07-05T01:20:13;0.50;;;0.50;;
21497;SDS011;10910;50.932;0.246;2022-07-05T01:23:13;0.60;;;0.60;;
21497;SDS011;10910;50.932;0.246;2022-07-05T01:25:32;0.50;;;0.50;;
21497;SDS011;10910;50.932;0.246;2022-07-05T01:27:59;0.45;;;0.45;;
21497;SDS011;10910;50.932;0.246;2022-07-05T01:30:37;0.50;;;0.50;;
21497;SDS011;10910;50.932;0.246;2022-07-05T01:35:40;0.50;;;0.50;;
21497;SDS011;10910;50.932;0.246;2022-07-05T01:38:07;0.60;;;0.60;;
21497;SDS011;10910;50.932;0.246;2022-07-05T01:40:33;0.60;;;0.60;;
21497;SDS011;10910;50.932;0.246;2022-07-05T01:42:59;0.60;;;0.60;;
21497;SDS011;10910;50.932;0.246;2022-07-05T01:45:25;0.52;;;0.52;;
21497;SDS011;10910;50.932;0.246;2022-07-05T01:48:10;0.60;;;0.60;;
21497;SDS011;10910;50.932;0.246;2022-07-05T01:51:00;0.50;;;0.50;;
21497;SDS011;10910;50.932;0.246;2022-07-05T01:53:30;0.70;;;0.70;;
21497;SDS011;10910;50.932;0.246;2022-07-05T01:55:57;0.60;;;0.60;;
21497;SDS011;10910;50.932;0.246;2022-07-05T01:58:26;0.50;;;0.50;;
21497;SDS011;10910;50.932;0.246;2022-07-05T02:00:53;0.60;;;0.60;;
21497;SDS011;10910;50.932;0.246;2022-07-05T02:03:19;0.50;;;0.50;;
21497;SDS011;10910;50.932;0.246;2022-07-05T02:05:46;0.60;;;0.60;;
21497;SDS011;10910;50.932;0.246;2022-07-05T02:08:12;0.40;;;0.40;;
21497;SDS011;10910;50.932;0.246;2022-07-05T02:10:39;0.60;;;0.60;;
21497;SDS011;10910;50.932;0.246;2022-07-05T02:13:05;0.60;;;0.60;;
21497;SDS011;10910;50.932;0.246;2022-07-05T02:15:35;0.70;;;0.70;;
21497;SDS011;10910;50.932;0.246;2022-07-05T02:18:02;0.60;;;0.60;;
21497;SDS011;10910;50.932;0.246;2022-07-05T02:20:29;0.60;;;0.60;;
21497;SDS011;10910;50.932;0.246;2022-07-05T02:22:55;0.60;;;0.60;;
21497;SDS011;10910;50.932;0.246;2022-07-05T02:25:21;0.60;;;0.60;;
21497;SDS011;10910;50.932;0.246;2022-07-05T02:27:47;0.60;;;0.60;;
21497;SDS011;10910;50.932;0.246;2022-07-05T02:30:14;0.50;;;0.50;;
21497;SDS011;10910;50.932;0.246;2022-07-05T02:32:40;0.63;;;0.63;;
21497;SDS011;10910;50.932;0.246;2022-07-05T02:35:06;0.50;;;0.50;;
21497;SDS011;10910;50.932;0.246;2022-07-05T02:37:33;0.68;;;0.68;;
21497;SDS011;10910;50.932;0.246;2022-07-05T02:39:59;0.70;;;0.70;;
21497;SDS011;10910;50.932;0.246;2022-07-05T02:42:25;0.70;;;0.70;;
21497;SDS011;10910;50.932;0.246;2022-07-05T02:44:51;0.70;;;0.70;;
21497;SDS011;10910;50.932;0.246;2022-07-05T02:47:17;0.60;;;0.60;;
21497;SDS011;10910;50.932;0.246;2022-07-05T02:49:43;0.70;;;0.70;;
21497;SDS011;10910;50.932;0.246;2022-07-05T02:52:09;0.60;;;0.60;;
21497;SDS011;10910;50.932;0.246;2022-07-05T02:54:35;0.60;;;0.60;;
21497;SDS011;10910;50.932;0.246;2022-07-05T02:57:02;0.50;;;0.50;;
21497;SDS011;10910;50.932;0.246;2022-07-05T02:59:28;0.50;;;0.50;;
21497;SDS011;10910;50.932;0.246;2022-07-05T03:01:56;0.50;;;0.50;;
21497;SDS011;10910;50.932;0.246;2022-07-05T03:04:22;0.70;;;0.70;;
21497;SDS011;10910;50.932;0.246;2022-07-05T03:06:48;0.50;;;0.50;;
21497;SDS011;10910;50.932;0.246;2022-07-05T03:09:14;0.70;;;0.70;;
21497;SDS011;10910;50.932;0.246;2022-07-05T03:11:40;0.50;;;0.50;;
21497;SDS011;10910;50.932;0.246;2022-07-05T03:14:07;0.60;;;0.60;;
21497;SDS011;10910;50.932;0.246;2022-07-05T03:16:33;0.40;;;0.40;;
21497;SDS011;10910;50.932;0.246;2022-07-05T03:18:59;0.60;;;0.60;;
21497;SDS011;10910;50.932;0.246;2022-07-05T03:21:25;0.70;;;0.70;;
21497;SDS011;10910;50.932;0.246;2022-07-05T03:23:51;0.60;;;0.60;;
21497;SDS011;10910;50.932;0.246;2022-07-05T03:26:17;0.60;;;0.60;;
21497;SDS011;10910;50.932;0.246;2022-07-05T03:28:44;0.60;;;0.60;;
21497;SDS011;10910;50.932;0.246;2022-07-05T03:31:10;0.50;;;0.50;;
21497;SDS011;10910;50.932;0.246;2022-07-05T03:33:36;0.60;;;0.60;;
21497;SDS011;10910;50.932;0.246;2022-07-05T03:36:02;0.70;;;0.70;;
21497;SDS011;10910;50.932;0.246;2022-07-05T03:38:28;0.73;;;0.73;;
21497;SDS011;10910;50.932;0.246;2022-07-05T03:40:54;0.70;;;0.70;;
21497;SDS011;10910;50.932;0.246;2022-07-05T03:43:20;0.60;;;0.60;;
21497;SDS011;10910;50.932;0.246;2022-07-05T03:45:46;0.70;;;0.70;;
21497;SDS011;10910;50.932;0.246;2022-07-05T03:48:12;0.70;;;0.70;;
21497;SDS011;10910;50.932;0.246;2022-07-05T03:50:38;0.60;;;0.60;;
21497;SDS011;10910;50.932;0.246;2022-07-05T03:53:04;0.70;;;0.70;;
21497;SDS011;10910;50.932;0.246;2022-07-05T03:55:30;0.50;;;0.50;;
21497;SDS011;10910;50.932;0.246;2022-07-05T03:57:56;0.65;;;0.65;;
21497;SDS011;10910;50.932;0.246;2022-07-05T04:00:22;0.60;;;0.60;;
21497;SDS011;10910;50.932;0.246;2022-07-05T04:02:48;0.70;;;0.70;;
21497;SDS011;10910;50.932;0.246;2022-07-05T04:05:14;0.60;;;0.60;;
21497;SDS011;10910;50.932;0.246;2022-07-05T04:07:47;0.60;;;0.60;;
21497;SDS011;10910;50.932;0.246;2022-07-05T04:10:14;0.70;;;0.70;;
21497;SDS011;10910;50.932;0.246;2022-07-05T04:12:40;0.70;;;0.70;;
21497;SDS011;10910;50.932;0.246;2022-07-05T04:15:06;0.70;;;0.70;;
21497;SDS011;10910;50.932;0.246;2022-07-05T04:17:32;0.60;;;0.60;;
21497;SDS011;10910;50.932;0.246;2022-07-05T04:19:58;0.68;;;0.68;;
21497;SDS011;10910;50.932;0.246;2022-07-05T04:22:24;0.60;;;0.60;;
21497;SDS011;10910;50.932;0.246;2022-07-05T04:24:50;0.50;;;0.50;;
21497;SDS011;10910;50.932;0.246;2022-07-05T04:27:35;0.60;;;0.60;;
21497;SDS011;10910;50.932;0.246;2022-07-05T04:30:01;0.60;;;0.60;;
21497;SDS011;10910;50.932;0.246;2022-07-05T04:32:27;0.70;;;0.70;;
21497;SDS011;10910;50.932;0.246;2022-07-05T04:34:53;0.60;;;0.60;;
21497;SDS011;10910;50.932;0.246;2022-07-05T04:37:19;0.60;;;0.60;;
21497;SDS011;10910;50.932;0.246;2022-07-05T04:39:45;0.50;;;0.50;;
21497;SDS011;10910;50.932;0.246;2022-07-05T04:42:12;0.60;;;0.60;;
21497;SDS011;10910;50.932;0.246;2022-07-05T04:44:38;0.60;;;0.60;;
21497;SDS011;10910;50.932;0.246;2022-07-05T04:47:04;0.70;;;0.70;;
21497;SDS011;10910;50.932;0.246;2022-07-05T04:49:31;0.60;;;0.60;;
21497;SDS011;10910;50.932;0.246;2022-07-05T04:51:57;0.50;;;0.50;;
21497;SDS011;10910;50.932;0.246;2022-07-05T04:54:23;0.60;;;0.60;;
21497;SDS011;10910;50.932;0.246;2022-07-05T04:56:49;0.60;;;0.60;;
21497;SDS011;10910;50.932;0.246;2022-07-05T04:59:15;0.60;;;0.60;;
21497;SDS011;10910;50.932;0.246;2022-07-05T05:01:41;0.70;;;0.70;;
21497;SDS011;10910;50.932;0.246;2022-07-05T05:04:07;0.60;;;0.60;;
21497;SDS011;10910;50.932;0.246;2022-07-05T05:06:33;0.70;;;0.70;;
21497;SDS011;10910;50.932;0.246;2022-07-05T05:08:59;0.60;;;0.60;;
21497;SDS011;10910;50.932;0.246;2022-07-05T05:11:25;0.70;;;0.70;;
21497;SDS011;10910;50.932;0.246;2022-07-05T05:13:51;0.60;;;0.60;;
21497;SDS011;10910;50.932;0.246;2022-07-05T05:16:17;0.60;;;0.60;;
21497;SDS011;10910;50.932;0.246;2022-07-05T05:18:43;0.60;;;0.60;;
21497;SDS011;10910;50.932;0.246;2022-07-05T05:21:09;0.60;;;0.60;;
21497;SDS011;10910;50.932;0.246;2022-07-05T05:23:35;0.65;;;0.65;;
21497;SDS011;10910;50.932;0.246;2022-07-05T05:26:01;0.63;;;0.63;;
21497;SDS011;10910;50.932;0.246;2022-07-05T05:28:27;0.50;;;0.50;;
21497;SDS011;10910;50.932;0.246;2022-07-05T05:30:53;0.60;;;0.60;;
21497;SDS011;10910;50.932;0.246;2022-07-05T05:33:19;0.50;;;0.50;;
21497;SDS011;10910;50.932;0.246;2022-07-05T05:35:45;0.60;;;0.60;;
21497;SDS011;10910;50.932;0.246;2022-07-05T05:38:12;0.60;;;0.60;;
21497;SDS011;10910;50.932;0.246;2022-07-05T05:40:38;0.80;;;0.80;;
21497;SDS011;10910;50.932;0.246;2022-07-05T05:43:06;0.55;;;0.55;;
21497;SDS011;10910;50.932;0.246;2022-07-05T05:45:32;0.50;;;0.50;;
21497;SDS011;10910;50.932;0.246;2022-07-05T05:47:58;0.50;;;0.50;;
21497;SDS011;10910;50.932;0.246;2022-07-05T05:50:29;0.60;;;0.60;;
21497;SDS011;10910;50.932;0.246;2022-07-05T05:52:55;0.40;;;0.40;;
21497;SDS011;10910;50.932;0.246;2022-07-05T05:55:22;0.50;;;0.50;;
21497;SDS011;10910;50.932;0.246;2022-07-05T05:57:48;0.60;;;0.60;;
21497;SDS011;10910;50.932;0.246;2022-07-05T06:00:15;0.60;;;0.60;;
21497;SDS011;10910;50.932;0.246;2022-07-05T06:02:41;0.60;;;0.60;;
21497;SDS011;10910;50.932;0.246;2022-07-05T06:05:08;0.60;;;0.60;;
21497;SDS011;10910;50.932;0.246;2022-07-05T06:07:53;0.60;;;0.60;;
21497;SDS011;10910;50.932;0.246;2022-07-05T06:10:21;0.50;;;0.50;;
21497;SDS011;10910;50.932;0.246;2022-07-05T06:12:48;0.50;;;0.50;;
21497;SDS011;10910;50.932;0.246;2022-07-05T06:15:15;0.57;;;0.57;;
21497;SDS011;10910;50.932;0.246;2022-07-05T06:17:42;0.60;;;0.60;;
21497;SDS011;10910;50.932;0.246;2022-07-05T06:20:10;0.60;;;0.60;;
21497;SDS011;10910;50.932;0.246;2022-07-05T06:22:37;0.65;;;0.65;;
21497;SDS011;10910;50.932;0.246;2022-07-05T06:25:04;0.60;;;0.60;;
21497;SDS011;10910;50.932;0.246;2022-07-05T06:27:30;0.60;;;0.60;;
21497;SDS011;10910;50.932;0.246;2022-07-05T06:29:56;0.60;;;0.60;;
21497;SDS011;10910;50.932;0.246;2022-07-05T06:32:23;0.70;;;0.70;;
21497;SDS011;10910;50.932;0.246;2022-07-05T06:34:49;0.60;;;0.60;;
21497;SDS011;10910;50.932;0.246;2022-07-05T06:37:15;0.60;;;0.60;;
21497;SDS011;10910;50.932;0.246;2022-07-05T06:39:41;0.65;;;0.65;;
21497;SDS011;10910;50.932;0.246;2022-07-05T06:42:08;0.60;;;0.60;;
21497;SDS011;10910;50.932;0.246;2022-07-05T06:44:34;0.60;;;0.60;;
21497;SDS011;10910;50.932;0.246;2022-07-05T06:47:00;0.60;;;0.60;;
21497;SDS011;10910;50.932;0.246;2022-07-05T06:49:27;0.50;;;0.50;;
21497;SDS011;10910;50.932;0.246;2022-07-05T06:51:53;0.60;;;0.60;;
21497;SDS011;10910;50.932;0.246;2022-07-05T06:54:19;0.50;;;0.50;;
21497;SDS011;10910;50.932;0.246;2022-07-05T06:56:45;0.60;;;0.60;;
21497;SDS011;10910;50.932;0.246;2022-07-05T06:59:11;0.60;;;0.60;;
21497;SDS011;10910;50.932;0.246;2022-07-05T07:01:37;0.50;;;0.50;;
21497;SDS011;10910;50.932;0.246;2022-07-05T07:04:03;0.68;;;0.68;;
21497;SDS011;10910;50.932;0.246;2022-07-05T07:06:30;0.60;;;0.60;;
21497;SDS011;10910;50.932;0.246;2022-07-05T07:08:56;0.50;;;0.50;;
21497;SDS011;10910;50.932;0.246;2022-07-05T07:11:40;0.50;;;0.50;;
21497;SDS011;10910;50.932;0.246;2022-07-05T07:14:06;0.60;;;0.60;;
21497;SDS011;10910;50.932;0.246;2022-07-05T07:16:32;0.60;;;0.60;;
21497;SDS011;10910;50.932;0.246;2022-07-05T07:18:58;0.60;;;0.60;;
21497;SDS011;10910;50.932;0.246;2022-07-05T07:21:24;0.63;;;0.63;;
21497;SDS011;10910;50.932;0.246;2022-07-05T07:23:50;0.50;;;0.50;;
21497;SDS011;10910;50.932;0.246;2022-07-05T07:26:17;0.52;;;0.52;;
21497;SDS011;10910;50.932;0.246;2022-07-05T07:28:43;0.60;;;0.60;;
21497;SDS011;10910;50.932;0.246;2022-07-05T07:31:09;0.50;;;0.50;;
21497;SDS011;10910;50.932;0.246;2022-07-05T07:33:35;0.60;;;0.60;;
21497;SDS011;10910;50.932;0.246;2022-07-05T07:36:02;0.50;;;0.50;;
21497;SDS011;10910;50.932;0.246;2022-07-05T07:38:28;0.57;;;0.57;;
21497;SDS011;10910;50.932;0.246;2022-07-05T07:40:54;0.50;;;0.50;;
21497;SDS011;10910;50.932;0.246;2022-07-05T07:43:21;0.50;;;0.50;;
21497;SDS011;10910;50.932;0.246;2022-07-05T07:45:47;0.50;;;0.50;;
21497;SDS011;10910;50.932;0.246;2022-07-05T07:48:13;0.60;;;0.60;;
21497;SDS011;10910;50.932;0.246;2022-07-05T07:50:39;0.60;;;0.60;;
21497;SDS011;10910;50.932;0.246;2022-07-05T07:53:05;0.50;;;0.50;;
21497;SDS011;10910;50.932;0.246;2022-07-05T07:55:31;0.50;;;0.50;;
21497;SDS011;10910;50.932;0.246;2022-07-05T07:57:57;0.50;;;0.50;;
21497;SDS011;10910;50.932;0.246;2022-07-05T08:00:24;0.60;;;0.60;;
21497;SDS011;10910;50.932;0.246;2022-07-05T08:02:50;0.60;;;0.60;;
21497;SDS011;10910;50.932;0.246;2022-07-05T08:05:16;0.50;;;0.50;;
21497;SDS011;10910;50.932;0.246;2022-07-05T08:07:42;0.57;;;0.57;;
21497;SDS011;10910;50.932;0.246;2022-07-05T08:10:08;0.50;;;0.50;;
21497;SDS011;10910;50.932;0.246;2022-07-05T08:12:35;0.43;;;0.43;;
21497;SDS011;10910;50.932;0.246;2022-07-05T08:15:01;0.60;;;0.60;;
21497;SDS011;10910;50.932;0.246;2022-07-05T08:17:27;0.50;;;0.50;;
21497;SDS011;10910;50.932;0.246;2022-07-05T08:19:53;0.60;;;0.60;;
21497;SDS011;10910;50.932;0.246;2022-07-05T08:22:38;0.60;;;0.60;;
21497;SDS011;10910;50.932;0.246;2022-07-05T08:25:04;0.50;;;0.50;;
21497;SDS011;10910;50.932;0.246;2022-07-05T08:27:30;0.50;;;0.50;;
21497;SDS011;10910;50.932;0.246;2022-07-05T08:29:56;0.60;;;0.60;;
21497;SDS011;10910;50.932;0.246;2022-07-05T08:32:22;0.50;;;0.50;;
21497;SDS011;10910;50.932;0.246;2022-07-05T08:34:48;0.60;;;0.60;;
21497;SDS011;10910;50.932;0.246;2022-07-05T08:37:14;0.45;;;0.45;;
21497;SDS011;10910;50.932;0.246;2022-07-05T08:39:40;0.50;;;0.50;;
21497;SDS011;10910;50.932;0.246;2022-07-05T08:42:09;0.50;;;0.50;;
21497;SDS011;10910;50.932;0.246;2022-07-05T08:44:36;0.50;;;0.50;;
21497;SDS011;10910;50.932;0.246;2022-07-05T08:47:06;0.60;;;0.60;;
21497;SDS011;10910;50.932;0.246;2022-07-05T08:49:33;0.50;;;0.50;;
21497;SDS011;10910;50.932;0.246;2022-07-05T08:52:00;0.50;;;0.50;;
21497;SDS011;10910;50.932;0.246;2022-07-05T08:54:30;0.45;;;0.45;;
21497;SDS011;10910;50.932;0.246;2022-07-05T08:56:57;0.40;;;0.40;;
21497;SDS011;10910;50.932;0.246;2022-07-05T08:59:23;0.43;;;0.43;;
21497;SDS011;10910;50.932;0.246;2022-07-05T09:01:49;0.50;;;0.50;;
21497;SDS011;10910;50.932;0.246;2022-07-05T09:04:16;0.40;;;0.40;;
21497;SDS011;10910;50.932;0.246;2022-07-05T09:06:43;0.40;;;0.40;;
21497;SDS011;10910;50.932;0.246;2022-07-05T09:09:11;0.40;;;0.40;;
21497;SDS011;10910;50.932;0.246;2022-07-05T09:11:39;0.50;;;0.50;;
21497;SDS011;10910;50.932;0.246;2022-07-05T09:14:07;0.50;;;0.50;;
21497;SDS011;10910;50.932;0.246;2022-07-05T09:16:33;0.40;;;0.40;;
21497;SDS011;10910;50.932;0.246;2022-07-05T09:19:06;0.40;;;0.40;;
21497;SDS011;10910;50.932;0.246;2022-07-05T09:21:33;0.30;;;0.30;;
21497;SDS011;10910;50.932;0.246;2022-07-05T09:29:04;0.30;;;0.30;;
21497;SDS011;10910;50.932;0.246;2022-07-05T09:31:35;0.30;;;0.30;;
21497;SDS011;10910;50.932;0.246;2022-07-05T09:34:08;0.30;;;0.30;;
21497;SDS011;10910;50.932;0.246;2022-07-05T09:39:13;0.30;;;0.30;;
21497;SDS011;10910;50.932;0.246;2022-07-05T09:41:39;0.20;;;0.20;;
21497;SDS011;10910;50.932;0.246;2022-07-05T09:44:05;0.20;;;0.20;;
21497;SDS011;10910;50.932;0.246;2022-07-05T09:46:31;0.20;;;0.20;;
21497;SDS011;10910;50.932;0.246;2022-07-05T09:48:58;0.20;;;0.20;;
21497;SDS011;10910;50.932;0.246;2022-07-05T09:51:24;0.20;;;0.20;;
21497;SDS011;10910;50.932;0.246;2022-07-05T09:53:51;0.20;;;0.20;;
21497;SDS011;10910;50.932;0.246;2022-07-05T09:56:18;0.40;;;0.40;;
21497;SDS011;10910;50.932;0.246;2022-07-05T09:58:45;0.30;;;0.30;;
21497;SDS011;10910;50.932;0.246;2022-07-05T10:01:29;0.30;;;0.30;;
21497;SDS011;10910;50.932;0.246;2022-07-05T10:03:56;0.30;;;0.30;;
21497;SDS011;10910;50.932;0.246;2022-07-05T10:06:23;0.30;;;0.30;;
21497;SDS011;10910;50.932;0.246;2022-07-05T10:08:49;0.20;;;0.20;;
21497;SDS011;10910;50.932;0.246;2022-07-05T10:11:19;0.20;;;0.20;;
21497;SDS011;10910;50.932;0.246;2022-07-05T10:13:49;0.10;;;0.10;;
21497;SDS011;10910;50.932;0.246;2022-07-05T10:16:16;0.10;;;0.10;;
21497;SDS011;10910;50.932;0.246;2022-07-05T10:18:46;0.20;;;0.20;;
21497;SDS011;10910;50.932;0.246;2022-07-05T10:21:13;0.20;;;0.20;;
21497;SDS011;10910;50.932;0.246;2022-07-05T10:23:43;0.20;;;0.20;;
21497;SDS011;10910;50.932;0.246;2022-07-05T10:26:11;0.10;;;0.10;;
21497;SDS011;10910;50.932;0.246;2022-07-05T10:28:38;0.20;;;0.20;;
21497;SDS011;10910;50.932;0.246;2022-07-05T10:31:04;0.15;;;0.15;;
21497;SDS011;10910;50.932;0.246;2022-07-05T10:33:30;0.20;;;0.20;;
21497;SDS011;10910;50.932;0.246;2022-07-05T10:35:56;0.20;;;0.20;;
21497;SDS011;10910;50.932;0.246;2022-07-05T10:38:23;0.20;;;0.20;;
21497;SDS011;10910;50.932;0.246;2022-07-05T10:40:52;0.20;;;0.20;;
21497;SDS011;10910;50.932;0.246;2022-07-05T10:43:21;0.10;;;0.10;;
21497;SDS011;10910;50.932;0.246;2022-07-05T10:45:48;0.20;;;0.20;;
21497;SDS011;10910;50.932;0.246;2022-07-05T10:48:21;0.20;;;0.20;;
21497;SDS011;10910;50.932;0.246;2022-07-05T10:50:58;0.20;;;0.20;;
21497;SDS011;10910;50.932;0.246;2022-07-05T10:53:26;0.20;;;0.20;;
21497;SDS011;10910;50.932;0.246;2022-07-05T10:58:28;0.20;;;0.20;;
21497;SDS011;10910;50.932;0.246;2022-07-05T11:03:53;0.10;;;0.10;;
21497;SDS011;10910;50.932;0.246;2022-07-05T11:06:23;0.20;;;0.20;;
21497;SDS011;10910;50.932;0.246;2022-07-05T11:11:38;0.20;;;0.20;;
21497;SDS011;10910;50.932;0.246;2022-07-05T11:16:47;0.20;;;0.20;;
21497;SDS011;10910;50.932;0.246;2022-07-05T11:19:14;0.30;;;0.30;;
21497;SDS011;10910;50.932;0.246;2022-07-05T11:21:59;0.20;;;0.20;;
21497;SDS011;10910;50.932;0.246;2022-07-05T11:24:26;0.20;;;0.20;;
21497;SDS011;10910;50.932;0.246;2022-07-05T11:26:53;0.17;;;0.17;;
21497;SDS011;10910;50.932;0.246;2022-07-05T11:32:07;0.20;;;0.20;;
21497;SDS011;10910;50.932;0.246;2022-07-05T11:34:35;0.10;;;0.10;;
21497;SDS011;10910;50.932;0.246;2022-07-05T11:42:30;0.10;;;0.10;;
21497;SDS011;10910;50.932;0.246;2022-07-05T11:44:56;0.10;;;0.10;;
21497;SDS011;10910;50.932;0.246;2022-07-05T11:47:22;0.10;;;0.10;;
21497;SDS011;10910;50.932;0.246;2022-07-05T11:49:52;0.20;;;0.20;;
21497;SDS011;10910;50.932;0.246;2022-07-05T11:52:24;0.20;;;0.20;;
21497;SDS011;10910;50.932;0.246;2022-07-05T11:54:51;0.10;;;0.10;;
21497;SDS011;10910;50.932;0.246;2022-07-05T11:57:17;0.10;;;0.10;;
21497;SDS011;10910;50.932;0.246;2022-07-05T11:59:44;0.10;;;0.10;;
21497;SDS011;10910;50.932;0.246;2022-07-05T12:02:10;0.20;;;0.20;;
21497;SDS011;10910;50.932;0.246;2022-07-05T12:04:36;0.10;;;0.10;;
21497;SDS011;10910;50.932;0.246;2022-07-05T12:07:03;0.10;;;0.10;;
21497;SDS011;10910;50.932;0.246;2022-07-05T12:09:31;0.20;;;0.20;;
21497;SDS011;10910;50.932;0.246;2022-07-05T12:12:19;0.10;;;0.10;;
21497;SDS011;10910;50.932;0.246;2022-07-05T12:15:04;0.20;;;0.20;;
21497;SDS011;10910;50.932;0.246;2022-07-05T12:17:32;0.10;;;0.10;;
21497;SDS011;10910;50.932;0.246;2022-07-05T12:20:00;0.10;;;0.10;;
21497;SDS011;10910;50.932;0.246;2022-07-05T12:22:30;0.13;;;0.13;;
21497;SDS011;10910;50.932;0.246;2022-07-05T12:24:57;0.10;;;0.10;;
21497;SDS011;10910;50.932;0.246;2022-07-05T12:27:30;0.10;;;0.10;;
21497;SDS011;10910;50.932;0.246;2022-07-05T12:29:57;0.10;;;0.10;;
21497;SDS011;10910;50.932;0.246;2022-07-05T12:32:23;0.10;;;0.10;;
21497;SDS011;10910;50.932;0.246;2022-07-05T12:34:49;0.10;;;0.10;;
21497;SDS011;10910;50.932;0.246;2022-07-05T12:37:25;0.20;;;0.20;;
21497;SDS011;10910;50.932;0.246;2022-07-05T12:40:05;0.10;;;0.10;;
21497;SDS011;10910;50.932;0.246;2022-07-05T12:42:35;0.10;;;0.10;;
21497;SDS011;10910;50.932;0.246;2022-07-05T12:47:50;0.10;;;0.10;;
21497;SDS011;10910;50.932;0.246;2022-07-05T12:50:16;0.10;;;0.10;;
21497;SDS011;10910;50.932;0.246;2022-07-05T12:55:50;0.20;;;0.20;;
21497;SDS011;10910;50.932;0.246;2022-07-05T12:58:51;0.10;;;0.10;;
21497;SDS011;10910;50.932;0.246;2022-07-05T13:06:40;0.10;;;0.10;;
21497;SDS011;10910;50.932;0.246;2022-07-05T13:09:07;0.15;;;0.15;;
21497;SDS011;10910;50.932;0.246;2022-07-05T13:11:33;0.20;;;0.20;;
21497;SDS011;10910;50.932;0.246;2022-07-05T13:13:59;0.13;;;0.13;;
21497;SDS011;10910;50.932;0.246;2022-07-05T13:16:25;0.15;;;0.15;;
21497;SDS011;10910;50.932;0.246;2022-07-05T13:18:51;0.10;;;0.10;;
21497;SDS011;10910;50.932;0.246;2022-07-05T13:21:17;0.10;;;0.10;;
21497;SDS011;10910;50.932;0.246;2022-07-05T13:23:43;0.20;;;0.20;;
21497;SDS011;10910;50.932;0.246;2022-07-05T13:26:10;0.20;;;0.20;;
21497;SDS011;10910;50.932;0.246;2022-07-05T13:28:36;0.20;;;0.20;;
21497;SDS011;10910;50.932;0.246;2022-07-05T13:31:02;0.20;;;0.20;;
21497;SDS011;10910;50.932;0.246;2022-07-05T13:33:28;0.20;;;0.20;;
21497;SDS011;10910;50.932;0.246;2022-07-05T13:35:54;0.20;;;0.20;;
21497;SDS011;10910;50.932;0.246;2022-07-05T13:38:20;0.20;;;0.20;;
21497;SDS011;10910;50.932;0.246;2022-07-05T13:40:46;0.20;;;0.20;;
21497;SDS011;10910;50.932;0.246;2022-07-05T13:43:12;0.20;;;0.20;;
21497;SDS011;10910;50.932;0.246;2022-07-05T13:45:38;0.20;;;0.20;;
21497;SDS011;10910;50.932;0.246;2022-07-05T13:48:04;0.20;;;0.20;;
21497;SDS011;10910;50.932;0.246;2022-07-05T13:50:30;0.20;;;0.20;;
21497;SDS011;10910;50.932;0.246;2022-07-05T13:52:57;0.20;;;0.20;;
21497;SDS011;10910;50.932;0.246;2022-07-05T13:55:23;0.25;;;0.25;;
21497;SDS011;10910;50.932;0.246;2022-07-05T13:57:50;0.20;;;0.20;;
21497;SDS011;10910;50.932;0.246;2022-07-05T14:00:16;0.20;;;0.20;;
21497;SDS011;10910;50.932;0.246;2022-07-05T14:02:43;0.20;;;0.20;;
21497;SDS011;10910;50.932;0.246;2022-07-05T14:05:13;0.20;;;0.20;;
21497;SDS011;10910;50.932;0.246;2022-07-05T14:07:41;0.20;;;0.20;;
21497;SDS011;10910;50.932;0.246;2022-07-05T14:10:09;0.30;;;0.30;;
21497;SDS011;10910;50.932;0.246;2022-07-05T14:12:35;0.30;;;0.30;;
21497;SDS011;10910;50.932;0.246;2022-07-05T14:15:01;0.30;;;0.30;;
21497;SDS011;10910;50.932;0.246;2022-07-05T14:17:27;0.30;;;0.30;;
21497;SDS011;10910;50.932;0.246;2022-07-05T14:19:53;0.40;;;0.40;;
21497;SDS011;10910;50.932;0.246;2022-07-05T14:22:19;0.40;;;0.40;;
21497;SDS011;10910;50.932;0.246;2022-07-05T14:24:45;0.30;;;0.30;;
21497;SDS011;10910;50.932;0.246;2022-07-05T14:27:13;0.40;;;0.40;;
21497;SDS011;10910;50.932;0.246;2022-07-05T14:29:39;0.30;;;0.30;;
21497;SDS011;10910;50.932;0.246;2022-07-05T14:32:05;0.30;;;0.30;;
21497;SDS011;10910;50.932;0.246;2022-07-05T14:34:31;0.30;;;0.30;;
21497;SDS011;10910;50.932;0.246;2022-07-05T14:36:57;0.40;;;0.40;;
21497;SDS011;10910;50.932;0.246;2022-07-05T14:39:24;0.40;;;0.40;;
21497;SDS011;10910;50.932;0.246;2022-07-05T14:41:50;0.40;;;0.40;;
21497;SDS011;10910;50.932;0.246;2022-07-05T14:44:18;0.40;;;0.40;;
21497;SDS011;10910;50.932;0.246;2022-07-05T14:46:44;0.30;;;0.30;;
21497;SDS011;10910;50.932;0.246;2022-07-05T14:49:11;0.40;;;0.40;;
21497;SDS011;10910;50.932;0.246;2022-07-05T14:51:37;0.30;;;0.30;;
21497;SDS011;10910;50.932;0.246;2022-07-05T14:54:03;0.40;;;0.40;;
21497;SDS011;10910;50.932;0.246;2022-07-05T14:56:29;0.40;;;0.40;;
21497;SDS011;10910;50.932;0.246;2022-07-05T14:58:56;0.40;;;0.40;;
21497;SDS011;10910;50.932;0.246;2022-07-05T15:01:22;0.50;;;0.50;;
21497;SDS011;10910;50.932;0.246;2022-07-05T15:03:48;0.35;;;0.35;;
21497;SDS011;10910;50.932;0.246;2022-07-05T15:06:14;0.30;;;0.30;;
21497;SDS011;10910;50.932;0.246;2022-07-05T15:08:41;0.40;;;0.40;;
21497;SDS011;10910;50.932;0.246;2022-07-05T15:11:08;0.40;;;0.40;;
21497;SDS011;10910;50.932;0.246;2022-07-05T15:13:34;0.30;;;0.30;;
21497;SDS011;10910;50.932;0.246;2022-07-05T15:16:00;0.35;;;0.35;;
21497;SDS011;10910;50.932;0.246;2022-07-05T15:18:27;0.30;;;0.30;;
21497;SDS011;10910;50.932;0.246;2022-07-05T15:20:53;0.40;;;0.40;;
21497;SDS011;10910;50.932;0.246;2022-07-05T15:23:19;0.40;;;0.40;;
21497;SDS011;10910;50.932;0.246;2022-07-05T15:25:45;0.40;;;0.40;;
21497;SDS011;10910;50.932;0.246;2022-07-05T15:28:12;0.50;;;0.50;;
21497;SDS011;10910;50.932;0.246;2022-07-05T15:30:41;0.30;;;0.30;;